Airfield :
LOGIN :

Register | Disclaimer

   EN    FR    IT 

 










Legend :    VFR   Marginal VFR   IFR   Intensive IFR   Very Intensive IFR
Visi :
Ceiling :
>= 8 km
>= 3000ft
5 to 8 km
1000 to 3000 ft
1500m to 5 km
500 to 1000 ft
800 to 1500m
200 to 500 ft
< 800m
< 200 ft
Symbols :   Thunderstorms  Fog  Heavy snow  Heavy precipitations  Wind > 20 kt
SIGMETs :     Misc.  Thunderstorms  Icing  Turbulence  Mountain Waves  Volcanic Ashes






- Airport Elevation : 154 ft
- IATA code : SZZ


EPSC - Szczecin Goleniow

CURRENT METAR :
  • 290400Z 23004KT 9999 SCT017 09/07 Q1010

EXPIRED METARs :
  • 290330Z 25004KT 9999 FEW019 SCT040 08/07 Q1010
  • 290300Z 24006KT 210V270 9999 FEW040 09/07 Q1010
  • 290230Z 24005KT 210V270 9999 FEW048 08/07 Q1010
  • 290200Z 25005KT 210V270 9999 FEW044 SCT049 09/07 Q1010
  • 290130Z 24005KT 9999 SCT043 BKN048 09/07 Q1010

TAF TAF EPSC
Valid from the 29 at 00:00 until the 30 at 00:00 UTC


282330Z 2900/2924 25010KT 9999 SCT045
PROB40
TEMPO 2900/2907 BKN006 BKN010
TEMPO 2909/2921 -SHRA SCT012 BKN025CB
BECMG 2911/2914 19005KT
PROB30
TEMPO 2914/2918 4000 TSRA
BECMG 2916/2918 VRB02KT



MET'MAP, your aeronautical weather chart ! - Copyright ORBIFLY December 2007 - Disclaimer

ORBIFLY MET'MAP TEAM :

Programming & Development : Alexandra Zaïnal
Original concept : Baudouin d'Aumeries
Technical & hardware support : Manuel Goepfert
Assistance : Marc-Olivier Méhu

Contact : metmap@orbifly.com




SOURCES & CREDITS :

   NOAA